sensor_id;sensor_type;location;lat;lon;timestamp;P1;durP1;ratioP1;P2;durP2;ratioP2
26042;SDS011;13818;52.156;5.382;2022-12-18T00:01:59;54.28;;;16.77;;
26042;SDS011;13818;52.156;5.382;2022-12-18T00:04:26;48.47;;;16.10;;
26042;SDS011;13818;52.156;5.382;2022-12-18T00:06:53;45.92;;;17.05;;
26042;SDS011;13818;52.156;5.382;2022-12-18T00:09:20;56.80;;;18.63;;
26042;SDS011;13818;52.156;5.382;2022-12-18T00:11:47;54.40;;;16.05;;
26042;SDS011;13818;52.156;5.382;2022-12-18T00:14:13;56.95;;;17.27;;
26042;SDS011;13818;52.156;5.382;2022-12-18T00:16:42;53.00;;;18.40;;
26042;SDS011;13818;52.156;5.382;2022-12-18T00:19:11;60.50;;;16.85;;
26042;SDS011;13818;52.156;5.382;2022-12-18T00:21:39;49.63;;;17.73;;
26042;SDS011;13818;52.156;5.382;2022-12-18T00:24:06;41.63;;;12.77;;
26042;SDS011;13818;52.156;5.382;2022-12-18T00:26:33;43.80;;;16.73;;
26042;SDS011;13818;52.156;5.382;2022-12-18T00:29:02;50.75;;;17.98;;
26042;SDS011;13818;52.156;5.382;2022-12-18T00:31:31;36.63;;;12.57;;
26042;SDS011;13818;52.156;5.382;2022-12-18T00:33:57;52.20;;;17.13;;
26042;SDS011;13818;52.156;5.382;2022-12-18T00:36:26;48.08;;;18.77;;
26042;SDS011;13818;52.156;5.382;2022-12-18T00:38:55;54.30;;;15.48;;
26042;SDS011;13818;52.156;5.382;2022-12-18T00:41:22;52.70;;;15.50;;
26042;SDS011;13818;52.156;5.382;2022-12-18T00:44:07;44.28;;;15.88;;
26042;SDS011;13818;52.156;5.382;2022-12-18T00:49:02;41.55;;;12.60;;
26042;SDS011;13818;52.156;5.382;2022-12-18T00:51:30;44.17;;;16.08;;
26042;SDS011;13818;52.156;5.382;2022-12-18T00:53:57;58.28;;;20.13;;
26042;SDS011;13818;52.156;5.382;2022-12-18T00:56:23;48.42;;;14.82;;
26042;SDS011;13818;52.156;5.382;2022-12-18T00:58:50;46.15;;;12.90;;
26042;SDS011;13818;52.156;5.382;2022-12-18T01:01:18;47.22;;;17.63;;
26042;SDS011;13818;52.156;5.382;2022-12-18T01:03:44;36.35;;;14.55;;
26042;SDS011;13818;52.156;5.382;2022-12-18T01:06:12;36.67;;;13.60;;
26042;SDS011;13818;52.156;5.382;2022-12-18T01:08:42;55.65;;;17.38;;
26042;SDS011;13818;52.156;5.382;2022-12-18T01:11:09;46.13;;;16.67;;
26042;SDS011;13818;52.156;5.382;2022-12-18T01:13:37;50.90;;;16.45;;
26042;SDS011;13818;52.156;5.382;2022-12-18T01:16:05;37.97;;;13.73;;
26042;SDS011;13818;52.156;5.382;2022-12-18T01:18:33;71.32;;;19.58;;
26042;SDS011;13818;52.156;5.382;2022-12-18T01:20:59;44.90;;;17.98;;
26042;SDS011;13818;52.156;5.382;2022-12-18T01:23:26;67.40;;;19.38;;
26042;SDS011;13818;52.156;5.382;2022-12-18T01:25:54;60.22;;;17.38;;
26042;SDS011;13818;52.156;5.382;2022-12-18T01:28:20;41.90;;;17.13;;
26042;SDS011;13818;52.156;5.382;2022-12-18T01:30:47;33.47;;;10.82;;
26042;SDS011;13818;52.156;5.382;2022-12-18T01:33:13;47.47;;;14.45;;
26042;SDS011;13818;52.156;5.382;2022-12-18T01:35:40;45.97;;;19.83;;
26042;SDS011;13818;52.156;5.382;2022-12-18T01:38:07;48.42;;;17.38;;
26042;SDS011;13818;52.156;5.382;2022-12-18T01:40:34;39.63;;;13.25;;
26042;SDS011;13818;52.156;5.382;2022-12-18T01:43:02;53.63;;;18.73;;
26042;SDS011;13818;52.156;5.382;2022-12-18T01:45:29;51.47;;;16.73;;
26042;SDS011;13818;52.156;5.382;2022-12-18T01:47:57;50.58;;;15.93;;
26042;SDS011;13818;52.156;5.382;2022-12-18T01:50:28;48.20;;;15.93;;
26042;SDS011;13818;52.156;5.382;2022-12-18T01:52:59;43.20;;;16.02;;
26042;SDS011;13818;52.156;5.382;2022-12-18T01:55:31;62.97;;;18.23;;
26042;SDS011;13818;52.156;5.382;2022-12-18T01:58:02;51.63;;;15.25;;
26042;SDS011;13818;52.156;5.382;2022-12-18T02:00:30;60.45;;;16.50;;
26042;SDS011;13818;52.156;5.382;2022-12-18T02:02:56;41.50;;;16.65;;
26042;SDS011;13818;52.156;5.382;2022-12-18T02:05:25;44.35;;;15.60;;
26042;SDS011;13818;52.156;5.382;2022-12-18T02:08:03;37.17;;;15.57;;
26042;SDS011;13818;52.156;5.382;2022-12-18T02:10:36;44.28;;;14.75;;
26042;SDS011;13818;52.156;5.382;2022-12-18T02:13:17;55.28;;;18.38;;
26042;SDS011;13818;52.156;5.382;2022-12-18T02:15:51;43.60;;;14.38;;
26042;SDS011;13818;52.156;5.382;2022-12-18T02:18:25;43.42;;;15.80;;
26042;SDS011;13818;52.156;5.382;2022-12-18T02:20:58;53.85;;;16.23;;
26042;SDS011;13818;52.156;5.382;2022-12-18T02:23:36;50.22;;;16.48;;
26042;SDS011;13818;52.156;5.382;2022-12-18T02:26:15;44.05;;;17.60;;
26042;SDS011;13818;52.156;5.382;2022-12-18T02:28:49;59.08;;;17.20;;
26042;SDS011;13818;52.156;5.382;2022-12-18T02:31:19;51.17;;;16.05;;
26042;SDS011;13818;52.156;5.382;2022-12-18T02:33:48;43.70;;;15.70;;
26042;SDS011;13818;52.156;5.382;2022-12-18T02:36:18;58.70;;;17.60;;
26042;SDS011;13818;52.156;5.382;2022-12-18T02:38:47;49.53;;;16.63;;
26042;SDS011;13818;52.156;5.382;2022-12-18T02:41:17;46.90;;;15.77;;
26042;SDS011;13818;52.156;5.382;2022-12-18T02:43:53;50.08;;;16.42;;
26042;SDS011;13818;52.156;5.382;2022-12-18T02:46:30;62.38;;;15.38;;
26042;SDS011;13818;52.156;5.382;2022-12-18T02:49:01;70.82;;;20.25;;
26042;SDS011;13818;52.156;5.382;2022-12-18T02:51:36;50.60;;;17.83;;
26042;SDS011;13818;52.156;5.382;2022-12-18T02:54:10;64.15;;;19.38;;
26042;SDS011;13818;52.156;5.382;2022-12-18T02:56:49;56.67;;;17.00;;
26042;SDS011;13818;52.156;5.382;2022-12-18T02:59:17;53.08;;;17.85;;
26042;SDS011;13818;52.156;5.382;2022-12-18T03:01:51;50.40;;;15.80;;
26042;SDS011;13818;52.156;5.382;2022-12-18T03:04:23;43.00;;;13.70;;
26042;SDS011;13818;52.156;5.382;2022-12-18T03:06:55;44.03;;;14.13;;
26042;SDS011;13818;52.156;5.382;2022-12-18T03:09:25;52.58;;;13.20;;
26042;SDS011;13818;52.156;5.382;2022-12-18T03:12:00;57.60;;;16.65;;
26042;SDS011;13818;52.156;5.382;2022-12-18T03:14:48;34.65;;;12.60;;
26042;SDS011;13818;52.156;5.382;2022-12-18T03:17:18;43.20;;;15.57;;
26042;SDS011;13818;52.156;5.382;2022-12-18T03:19:48;60.15;;;16.83;;
26042;SDS011;13818;52.156;5.382;2022-12-18T03:22:17;43.63;;;14.68;;
26042;SDS011;13818;52.156;5.382;2022-12-18T03:24:44;42.28;;;14.23;;
26042;SDS011;13818;52.156;5.382;2022-12-18T03:27:14;49.63;;;17.45;;
26042;SDS011;13818;52.156;5.382;2022-12-18T03:29:45;44.83;;;16.38;;
26042;SDS011;13818;52.156;5.382;2022-12-18T03:32:20;50.58;;;16.80;;
26042;SDS011;13818;52.156;5.382;2022-12-18T03:34:51;44.00;;;13.75;;
26042;SDS011;13818;52.156;5.382;2022-12-18T03:37:21;34.22;;;12.02;;
26042;SDS011;13818;52.156;5.382;2022-12-18T03:39:47;37.88;;;14.73;;
26042;SDS011;13818;52.156;5.382;2022-12-18T03:42:16;57.35;;;16.95;;
26042;SDS011;13818;52.156;5.382;2022-12-18T03:44:52;38.38;;;14.43;;
26042;SDS011;13818;52.156;5.382;2022-12-18T03:47:25;57.65;;;16.30;;
26042;SDS011;13818;52.156;5.382;2022-12-18T03:49:57;41.88;;;16.73;;
26042;SDS011;13818;52.156;5.382;2022-12-18T03:52:35;48.45;;;14.05;;
26042;SDS011;13818;52.156;5.382;2022-12-18T03:55:04;37.17;;;13.00;;
26042;SDS011;13818;52.156;5.382;2022-12-18T03:57:34;49.85;;;16.65;;
26042;SDS011;13818;52.156;5.382;2022-12-18T04:02:30;34.20;;;14.70;;
26042;SDS011;13818;52.156;5.382;2022-12-18T04:04:58;36.10;;;13.43;;
26042;SDS011;13818;52.156;5.382;2022-12-18T04:07:28;42.13;;;14.75;;
26042;SDS011;13818;52.156;5.382;2022-12-18T04:09:55;40.45;;;14.45;;
26042;SDS011;13818;52.156;5.382;2022-12-18T04:12:24;31.75;;;14.23;;
26042;SDS011;13818;52.156;5.382;2022-12-18T04:14:52;38.70;;;13.00;;
26042;SDS011;13818;52.156;5.382;2022-12-18T04:17:19;27.27;;;12.15;;
26042;SDS011;13818;52.156;5.382;2022-12-18T04:19:46;34.80;;;13.65;;
26042;SDS011;13818;52.156;5.382;2022-12-18T04:22:12;25.00;;;9.80;;
26042;SDS011;13818;52.156;5.382;2022-12-18T04:24:39;17.20;;;6.78;;
26042;SDS011;13818;52.156;5.382;2022-12-18T04:27:05;21.63;;;8.55;;
26042;SDS011;13818;52.156;5.382;2022-12-18T04:29:33;42.40;;;9.85;;
26042;SDS011;13818;52.156;5.382;2022-12-18T04:32:00;31.48;;;12.68;;
26042;SDS011;13818;52.156;5.382;2022-12-18T04:34:27;25.63;;;9.32;;
26042;SDS011;13818;52.156;5.382;2022-12-18T04:36:53;27.15;;;8.10;;
26042;SDS011;13818;52.156;5.382;2022-12-18T04:39:20;31.92;;;9.77;;
26042;SDS011;13818;52.156;5.382;2022-12-18T04:41:46;25.17;;;9.35;;
26042;SDS011;13818;52.156;5.382;2022-12-18T04:44:13;27.27;;;10.68;;
26042;SDS011;13818;52.156;5.382;2022-12-18T04:46:39;18.42;;;8.50;;
26042;SDS011;13818;52.156;5.382;2022-12-18T04:49:07;24.20;;;8.35;;
26042;SDS011;13818;52.156;5.382;2022-12-18T04:51:35;20.40;;;9.90;;
26042;SDS011;13818;52.156;5.382;2022-12-18T04:54:02;20.33;;;7.60;;
26042;SDS011;13818;52.156;5.382;2022-12-18T04:56:30;20.73;;;9.70;;
26042;SDS011;13818;52.156;5.382;2022-12-18T05:01:23;21.67;;;6.88;;
26042;SDS011;13818;52.156;5.382;2022-12-18T05:03:50;20.67;;;9.68;;
26042;SDS011;13818;52.156;5.382;2022-12-18T05:06:18;16.58;;;7.72;;
26042;SDS011;13818;52.156;5.382;2022-12-18T05:08:44;16.67;;;7.50;;
26042;SDS011;13818;52.156;5.382;2022-12-18T05:11:12;32.42;;;11.05;;
26042;SDS011;13818;52.156;5.382;2022-12-18T05:13:40;28.55;;;9.65;;
26042;SDS011;13818;52.156;5.382;2022-12-18T05:16:07;20.20;;;7.63;;
26042;SDS011;13818;52.156;5.382;2022-12-18T05:18:34;11.15;;;5.60;;
26042;SDS011;13818;52.156;5.382;2022-12-18T05:21:01;20.00;;;9.85;;
26042;SDS011;13818;52.156;5.382;2022-12-18T05:23:29;18.88;;;7.63;;
26042;SDS011;13818;52.156;5.382;2022-12-18T05:25:56;23.65;;;8.00;;
26042;SDS011;13818;52.156;5.382;2022-12-18T05:28:25;22.20;;;5.85;;
26042;SDS011;13818;52.156;5.382;2022-12-18T05:30:53;15.20;;;6.70;;
26042;SDS011;13818;52.156;5.382;2022-12-18T05:33:22;25.05;;;9.80;;
26042;SDS011;13818;52.156;5.382;2022-12-18T05:35:50;20.10;;;7.30;;
26042;SDS011;13818;52.156;5.382;2022-12-18T05:38:16;20.65;;;8.68;;
26042;SDS011;13818;52.156;5.382;2022-12-18T05:40:44;22.77;;;9.75;;
26042;SDS011;13818;52.156;5.382;2022-12-18T05:43:11;21.98;;;8.70;;
26042;SDS011;13818;52.156;5.382;2022-12-18T05:45:37;21.05;;;8.35;;
26042;SDS011;13818;52.156;5.382;2022-12-18T05:48:04;16.35;;;6.00;;
26042;SDS011;13818;52.156;5.382;2022-12-18T05:50:33;21.55;;;8.75;;
26042;SDS011;13818;52.156;5.382;2022-12-18T05:53:00;26.33;;;8.80;;
26042;SDS011;13818;52.156;5.382;2022-12-18T05:55:27;20.90;;;9.70;;
26042;SDS011;13818;52.156;5.382;2022-12-18T05:57:55;17.13;;;7.65;;
26042;SDS011;13818;52.156;5.382;2022-12-18T06:00:21;13.38;;;6.45;;
26042;SDS011;13818;52.156;5.382;2022-12-18T06:02:47;19.63;;;7.45;;
26042;SDS011;13818;52.156;5.382;2022-12-18T06:05:14;27.17;;;8.77;;
26042;SDS011;13818;52.156;5.382;2022-12-18T06:07:41;19.58;;;7.00;;
26042;SDS011;13818;52.156;5.382;2022-12-18T06:10:07;20.23;;;8.82;;
26042;SDS011;13818;52.156;5.382;2022-12-18T06:12:34;12.95;;;5.03;;
26042;SDS011;13818;52.156;5.382;2022-12-18T06:15:01;16.00;;;6.43;;
26042;SDS011;13818;52.156;5.382;2022-12-18T06:17:28;21.42;;;6.85;;
26042;SDS011;13818;52.156;5.382;2022-12-18T06:19:55;21.52;;;8.40;;
26042;SDS011;13818;52.156;5.382;2022-12-18T06:22:21;17.40;;;7.07;;
26042;SDS011;13818;52.156;5.382;2022-12-18T06:24:48;18.50;;;7.78;;
26042;SDS011;13818;52.156;5.382;2022-12-18T06:27:14;17.08;;;6.65;;
26042;SDS011;13818;52.156;5.382;2022-12-18T06:29:41;22.60;;;8.52;;
26042;SDS011;13818;52.156;5.382;2022-12-18T06:32:08;17.50;;;6.20;;
26042;SDS011;13818;52.156;5.382;2022-12-18T06:34:36;26.92;;;8.63;;
26042;SDS011;13818;52.156;5.382;2022-12-18T06:37:03;15.80;;;6.57;;
26042;SDS011;13818;52.156;5.382;2022-12-18T06:39:29;24.75;;;7.93;;
26042;SDS011;13818;52.156;5.382;2022-12-18T06:41:56;13.73;;;6.07;;
26042;SDS011;13818;52.156;5.382;2022-12-18T06:44:22;17.52;;;6.50;;
26042;SDS011;13818;52.156;5.382;2022-12-18T06:46:49;16.45;;;7.25;;
26042;SDS011;13818;52.156;5.382;2022-12-18T06:49:17;23.73;;;8.52;;
26042;SDS011;13818;52.156;5.382;2022-12-18T06:51:43;15.48;;;7.95;;
26042;SDS011;13818;52.156;5.382;2022-12-18T06:54:10;22.75;;;8.23;;
26042;SDS011;13818;52.156;5.382;2022-12-18T06:56:36;22.95;;;7.55;;
26042;SDS011;13818;52.156;5.382;2022-12-18T06:59:02;15.50;;;7.22;;
26042;SDS011;13818;52.156;5.382;2022-12-18T07:01:29;19.83;;;8.60;;
26042;SDS011;13818;52.156;5.382;2022-12-18T07:03:56;16.83;;;7.35;;
26042;SDS011;13818;52.156;5.382;2022-12-18T07:06:24;24.08;;;8.52;;
26042;SDS011;13818;52.156;5.382;2022-12-18T07:08:51;15.85;;;7.30;;
26042;SDS011;13818;52.156;5.382;2022-12-18T07:11:19;23.25;;;9.80;;
26042;SDS011;13818;52.156;5.382;2022-12-18T07:13:46;18.10;;;9.07;;
26042;SDS011;13818;52.156;5.382;2022-12-18T07:16:13;19.60;;;6.63;;
26042;SDS011;13818;52.156;5.382;2022-12-18T07:18:41;31.55;;;9.93;;
26042;SDS011;13818;52.156;5.382;2022-12-18T07:21:10;22.20;;;9.32;;
26042;SDS011;13818;52.156;5.382;2022-12-18T07:23:39;21.60;;;6.88;;
26042;SDS011;13818;52.156;5.382;2022-12-18T07:26:07;25.38;;;8.93;;
26042;SDS011;13818;52.156;5.382;2022-12-18T07:28:35;9.27;;;6.05;;
26042;SDS011;13818;52.156;5.382;2022-12-18T07:31:02;14.60;;;7.63;;
26042;SDS011;13818;52.156;5.382;2022-12-18T07:33:29;24.40;;;10.35;;
26042;SDS011;13818;52.156;5.382;2022-12-18T07:35:58;21.40;;;8.50;;
26042;SDS011;13818;52.156;5.382;2022-12-18T07:38:24;18.25;;;8.60;;
26042;SDS011;13818;52.156;5.382;2022-12-18T07:40:52;20.13;;;10.05;;
26042;SDS011;13818;52.156;5.382;2022-12-18T07:43:19;15.13;;;6.63;;
26042;SDS011;13818;52.156;5.382;2022-12-18T07:45:45;16.63;;;7.28;;
26042;SDS011;13818;52.156;5.382;2022-12-18T07:48:15;14.73;;;6.05;;
26042;SDS011;13818;52.156;5.382;2022-12-18T07:50:41;17.60;;;7.30;;
26042;SDS011;13818;52.156;5.382;2022-12-18T07:53:08;18.48;;;7.70;;
26042;SDS011;13818;52.156;5.382;2022-12-18T07:55:34;15.60;;;6.50;;
26042;SDS011;13818;52.156;5.382;2022-12-18T07:58:03;25.88;;;8.27;;
26042;SDS011;13818;52.156;5.382;2022-12-18T08:00:30;29.33;;;7.78;;
26042;SDS011;13818;52.156;5.382;2022-12-18T08:02:57;6.85;;;3.60;;
26042;SDS011;13818;52.156;5.382;2022-12-18T08:05:23;17.33;;;6.72;;
26042;SDS011;13818;52.156;5.382;2022-12-18T08:07:50;18.02;;;8.05;;
26042;SDS011;13818;52.156;5.382;2022-12-18T08:10:16;25.50;;;7.78;;
26042;SDS011;13818;52.156;5.382;2022-12-18T08:12:43;12.98;;;6.13;;
26042;SDS011;13818;52.156;5.382;2022-12-18T08:15:11;23.90;;;8.32;;
26042;SDS011;13818;52.156;5.382;2022-12-18T08:17:38;20.33;;;8.52;;
26042;SDS011;13818;52.156;5.382;2022-12-18T08:20:04;12.18;;;6.50;;
26042;SDS011;13818;52.156;5.382;2022-12-18T08:22:33;28.95;;;9.50;;
26042;SDS011;13818;52.156;5.382;2022-12-18T08:25:04;15.23;;;7.00;;
26042;SDS011;13818;52.156;5.382;2022-12-18T08:27:31;13.80;;;6.13;;
26042;SDS011;13818;52.156;5.382;2022-12-18T08:29:57;13.18;;;6.30;;
26042;SDS011;13818;52.156;5.382;2022-12-18T08:32:26;21.77;;;9.45;;
26042;SDS011;13818;52.156;5.382;2022-12-18T08:37:19;22.80;;;7.75;;
26042;SDS011;13818;52.156;5.382;2022-12-18T08:39:45;12.43;;;7.82;;
26042;SDS011;13818;52.156;5.382;2022-12-18T08:42:12;24.70;;;10.32;;
26042;SDS011;13818;52.156;5.382;2022-12-18T08:44:56;15.18;;;7.80;;
26042;SDS011;13818;52.156;5.382;2022-12-18T08:47:22;20.55;;;8.85;;
26042;SDS011;13818;52.156;5.382;2022-12-18T08:49:52;18.43;;;7.70;;
26042;SDS011;13818;52.156;5.382;2022-12-18T08:52:18;22.98;;;8.48;;
26042;SDS011;13818;52.156;5.382;2022-12-18T08:54:45;23.30;;;9.38;;
26042;SDS011;13818;52.156;5.382;2022-12-18T08:57:11;19.63;;;9.27;;
26042;SDS011;13818;52.156;5.382;2022-12-18T08:59:38;19.70;;;9.02;;
26042;SDS011;13818;52.156;5.382;2022-12-18T09:02:04;26.55;;;10.35;;
26042;SDS011;13818;52.156;5.382;2022-12-18T09:04:31;22.85;;;10.07;;
26042;SDS011;13818;52.156;5.382;2022-12-18T09:06:59;20.85;;;9.48;;
26042;SDS011;13818;52.156;5.382;2022-12-18T09:09:25;20.73;;;9.57;;
26042;SDS011;13818;52.156;5.382;2022-12-18T09:11:52;21.60;;;9.77;;
26042;SDS011;13818;52.156;5.382;2022-12-18T09:14:18;21.33;;;9.57;;
26042;SDS011;13818;52.156;5.382;2022-12-18T09:16:45;16.58;;;7.70;;
26042;SDS011;13818;52.156;5.382;2022-12-18T09:19:11;28.92;;;9.57;;
26042;SDS011;13818;52.156;5.382;2022-12-18T09:21:39;19.75;;;9.10;;
26042;SDS011;13818;52.156;5.382;2022-12-18T09:24:08;21.25;;;8.45;;
26042;SDS011;13818;52.156;5.382;2022-12-18T09:26:38;19.80;;;9.68;;
26042;SDS011;13818;52.156;5.382;2022-12-18T09:29:05;20.60;;;8.65;;
26042;SDS011;13818;52.156;5.382;2022-12-18T09:31:32;20.70;;;8.63;;
26042;SDS011;13818;52.156;5.382;2022-12-18T09:33:59;23.27;;;9.65;;
26042;SDS011;13818;52.156;5.382;2022-12-18T09:36:26;22.08;;;9.13;;
26042;SDS011;13818;52.156;5.382;2022-12-18T09:38:52;23.92;;;9.18;;
26042;SDS011;13818;52.156;5.382;2022-12-18T09:44:19;22.60;;;9.45;;
26042;SDS011;13818;52.156;5.382;2022-12-18T09:46:50;17.65;;;8.05;;
26042;SDS011;13818;52.156;5.382;2022-12-18T09:49:23;28.08;;;9.07;;
26042;SDS011;13818;52.156;5.382;2022-12-18T09:51:54;17.88;;;9.32;;
26042;SDS011;13818;52.156;5.382;2022-12-18T09:54:26;17.05;;;7.50;;
26042;SDS011;13818;52.156;5.382;2022-12-18T09:57:00;21.70;;;9.23;;
26042;SDS011;13818;52.156;5.382;2022-12-18T09:59:29;26.23;;;9.43;;
26042;SDS011;13818;52.156;5.382;2022-12-18T10:02:00;23.80;;;9.15;;
26042;SDS011;13818;52.156;5.382;2022-12-18T10:04:37;28.17;;;10.80;;
26042;SDS011;13818;52.156;5.382;2022-12-18T10:07:05;22.02;;;7.60;;
26042;SDS011;13818;52.156;5.382;2022-12-18T10:09:40;17.15;;;8.88;;
26042;SDS011;13818;52.156;5.382;2022-12-18T10:12:17;19.15;;;8.80;;
26042;SDS011;13818;52.156;5.382;2022-12-18T10:14:50;25.35;;;9.38;;
26042;SDS011;13818;52.156;5.382;2022-12-18T10:17:24;21.52;;;8.63;;
26042;SDS011;13818;52.156;5.382;2022-12-18T10:19:59;24.73;;;9.27;;
26042;SDS011;13818;52.156;5.382;2022-12-18T10:22:35;14.77;;;6.20;;
26042;SDS011;13818;52.156;5.382;2022-12-18T10:25:13;24.95;;;8.88;;
26042;SDS011;13818;52.156;5.382;2022-12-18T10:27:47;12.55;;;6.55;;
26042;SDS011;13818;52.156;5.382;2022-12-18T10:30:18;15.38;;;6.35;;
26042;SDS011;13818;52.156;5.382;2022-12-18T10:32:46;20.95;;;7.47;;
26042;SDS011;13818;52.156;5.382;2022-12-18T10:35:15;25.08;;;8.07;;
26042;SDS011;13818;52.156;5.382;2022-12-18T10:40:49;19.60;;;8.23;;
26042;SDS011;13818;52.156;5.382;2022-12-18T10:43:21;14.18;;;7.07;;
26042;SDS011;13818;52.156;5.382;2022-12-18T10:46:03;21.63;;;9.18;;
26042;SDS011;13818;52.156;5.382;2022-12-18T10:48:39;15.23;;;7.80;;
26042;SDS011;13818;52.156;5.382;2022-12-18T10:51:18;18.42;;;8.45;;
26042;SDS011;13818;52.156;5.382;2022-12-18T10:53:50;14.93;;;6.65;;
26042;SDS011;13818;52.156;5.382;2022-12-18T10:56:20;19.40;;;6.85;;
26042;SDS011;13818;52.156;5.382;2022-12-18T10:58:54;15.60;;;7.47;;
26042;SDS011;13818;52.156;5.382;2022-12-18T11:01:23;18.58;;;7.13;;
26042;SDS011;13818;52.156;5.382;2022-12-18T11:03:58;17.00;;;6.75;;
26042;SDS011;13818;52.156;5.382;2022-12-18T11:06:27;13.35;;;5.47;;
26042;SDS011;13818;52.156;5.382;2022-12-18T11:08:57;25.42;;;7.40;;
26042;SDS011;13818;52.156;5.382;2022-12-18T11:11:25;18.30;;;7.03;;
26042;SDS011;13818;52.156;5.382;2022-12-18T11:13:57;22.02;;;6.72;;
26042;SDS011;13818;52.156;5.382;2022-12-18T11:16:27;14.20;;;6.05;;
26042;SDS011;13818;52.156;5.382;2022-12-18T11:18:59;21.83;;;7.68;;
26042;SDS011;13818;52.156;5.382;2022-12-18T11:21:39;12.27;;;6.47;;
26042;SDS011;13818;52.156;5.382;2022-12-18T11:24:08;13.73;;;6.03;;
26042;SDS011;13818;52.156;5.382;2022-12-18T11:26:45;10.70;;;6.63;;
26042;SDS011;13818;52.156;5.382;2022-12-18T11:29:16;13.00;;;5.95;;
26042;SDS011;13818;52.156;5.382;2022-12-18T11:31:44;12.70;;;6.60;;
26042;SDS011;13818;52.156;5.382;2022-12-18T11:34:11;14.07;;;5.65;;
26042;SDS011;13818;52.156;5.382;2022-12-18T11:36:52;21.88;;;7.15;;
26042;SDS011;13818;52.156;5.382;2022-12-18T11:39:21;16.73;;;6.80;;
26042;SDS011;13818;52.156;5.382;2022-12-18T11:41:57;16.75;;;5.43;;
26042;SDS011;13818;52.156;5.382;2022-12-18T11:44:40;20.98;;;7.85;;
26042;SDS011;13818;52.156;5.382;2022-12-18T11:47:13;17.08;;;7.45;;
26042;SDS011;13818;52.156;5.382;2022-12-18T11:49:47;15.38;;;6.10;;
26042;SDS011;13818;52.156;5.382;2022-12-18T11:52:16;14.48;;;6.20;;
26042;SDS011;13818;52.156;5.382;2022-12-18T11:54:54;20.50;;;7.15;;
26042;SDS011;13818;52.156;5.382;2022-12-18T11:57:28;21.17;;;8.05;;
26042;SDS011;13818;52.156;5.382;2022-12-18T12:00:07;20.13;;;7.20;;
26042;SDS011;13818;52.156;5.382;2022-12-18T12:02:48;24.05;;;8.32;;
26042;SDS011;13818;52.156;5.382;2022-12-18T12:05:36;15.20;;;6.88;;
26042;SDS011;13818;52.156;5.382;2022-12-18T12:08:15;16.77;;;6.18;;
26042;SDS011;13818;52.156;5.382;2022-12-18T12:10:50;14.68;;;6.93;;
26042;SDS011;13818;52.156;5.382;2022-12-18T12:13:24;10.73;;;4.75;;
26042;SDS011;13818;52.156;5.382;2022-12-18T12:16:06;18.80;;;7.65;;
26042;SDS011;13818;52.156;5.382;2022-12-18T12:21:39;15.95;;;7.13;;
26042;SDS011;13818;52.156;5.382;2022-12-18T12:24:14;14.32;;;5.45;;
26042;SDS011;13818;52.156;5.382;2022-12-18T12:26:49;17.23;;;7.05;;
26042;SDS011;13818;52.156;5.382;2022-12-18T12:29:27;21.33;;;7.63;;
26042;SDS011;13818;52.156;5.382;2022-12-18T12:32:10;16.23;;;7.53;;
26042;SDS011;13818;52.156;5.382;2022-12-18T12:34:48;18.13;;;6.85;;
26042;SDS011;13818;52.156;5.382;2022-12-18T12:37:28;19.98;;;7.93;;
26042;SDS011;13818;52.156;5.382;2022-12-18T12:40:06;18.38;;;6.90;;
26042;SDS011;13818;52.156;5.382;2022-12-18T12:42:38;17.20;;;6.88;;
26042;SDS011;13818;52.156;5.382;2022-12-18T12:45:29;22.65;;;7.20;;
26042;SDS011;13818;52.156;5.382;2022-12-18T12:48:02;12.18;;;6.82;;
26042;SDS011;13818;52.156;5.382;2022-12-18T12:50:33;19.48;;;7.53;;
26042;SDS011;13818;52.156;5.382;2022-12-18T12:53:01;16.38;;;7.15;;
26042;SDS011;13818;52.156;5.382;2022-12-18T12:55:33;20.50;;;8.18;;
26042;SDS011;13818;52.156;5.382;2022-12-18T12:58:02;22.38;;;7.55;;
26042;SDS011;13818;52.156;5.382;2022-12-18T13:00:39;16.00;;;6.53;;
26042;SDS011;13818;52.156;5.382;2022-12-18T13:03:15;21.50;;;8.32;;
26042;SDS011;13818;52.156;5.382;2022-12-18T13:05:53;15.02;;;6.93;;
26042;SDS011;13818;52.156;5.382;2022-12-18T13:08:25;17.98;;;7.25;;
26042;SDS011;13818;52.156;5.382;2022-12-18T13:10:53;16.27;;;7.22;;
26042;SDS011;13818;52.156;5.382;2022-12-18T13:13:48;17.98;;;8.05;;
26042;SDS011;13818;52.156;5.382;2022-12-18T13:16:14;15.93;;;6.57;;
26042;SDS011;13818;52.156;5.382;2022-12-18T13:18:49;22.95;;;8.30;;
26042;SDS011;13818;52.156;5.382;2022-12-18T13:21:20;21.85;;;7.93;;
26042;SDS011;13818;52.156;5.382;2022-12-18T13:23:52;26.10;;;8.23;;
26042;SDS011;13818;52.156;5.382;2022-12-18T13:26:28;17.58;;;7.32;;
26042;SDS011;13818;52.156;5.382;2022-12-18T13:28:58;23.33;;;8.00;;
26042;SDS011;13818;52.156;5.382;2022-12-18T13:34:36;21.45;;;7.60;;
26042;SDS011;13818;52.156;5.382;2022-12-18T13:43:23;15.65;;;5.05;;
26042;SDS011;13818;52.156;5.382;2022-12-18T13:46:00;21.55;;;7.63;;
26042;SDS011;13818;52.156;5.382;2022-12-18T13:48:29;15.90;;;6.75;;
26042;SDS011;13818;52.156;5.382;2022-12-18T13:51:03;12.98;;;6.00;;
26042;SDS011;13818;52.156;5.382;2022-12-18T13:53:33;13.85;;;6.45;;
26042;SDS011;13818;52.156;5.382;2022-12-18T13:56:03;16.63;;;6.80;;
26042;SDS011;13818;52.156;5.382;2022-12-18T13:58:31;23.50;;;8.63;;
26042;SDS011;13818;52.156;5.382;2022-12-18T14:00:58;17.85;;;6.70;;
26042;SDS011;13818;52.156;5.382;2022-12-18T14:03:27;17.75;;;6.97;;
26042;SDS011;13818;52.156;5.382;2022-12-18T14:05:59;19.85;;;6.90;;
26042;SDS011;13818;52.156;5.382;2022-12-18T14:08:33;28.55;;;9.02;;
26042;SDS011;13818;52.156;5.382;2022-12-18T14:11:04;23.08;;;6.90;;
26042;SDS011;13818;52.156;5.382;2022-12-18T14:13:33;15.40;;;5.85;;
26042;SDS011;13818;52.156;5.382;2022-12-18T14:16:03;17.85;;;7.40;;
26042;SDS011;13818;52.156;5.382;2022-12-18T14:18:33;18.33;;;7.75;;
26042;SDS011;13818;52.156;5.382;2022-12-18T14:21:14;16.25;;;6.10;;
26042;SDS011;13818;52.156;5.382;2022-12-18T14:23:43;23.55;;;8.85;;
26042;SDS011;13818;52.156;5.382;2022-12-18T14:26:19;17.30;;;6.30;;
26042;SDS011;13818;52.156;5.382;2022-12-18T14:28:47;17.05;;;6.75;;
26042;SDS011;13818;52.156;5.382;2022-12-18T14:31:17;19.08;;;8.10;;
26042;SDS011;13818;52.156;5.382;2022-12-18T14:33:44;17.85;;;6.90;;
26042;SDS011;13818;52.156;5.382;2022-12-18T14:36:14;24.33;;;7.47;;
26042;SDS011;13818;52.156;5.382;2022-12-18T14:38:43;22.42;;;7.93;;
26042;SDS011;13818;52.156;5.382;2022-12-18T14:41:14;23.38;;;7.72;;
26042;SDS011;13818;52.156;5.382;2022-12-18T14:43:42;16.93;;;8.37;;
26042;SDS011;13818;52.156;5.382;2022-12-18T14:46:25;14.48;;;6.93;;
26042;SDS011;13818;52.156;5.382;2022-12-18T14:48:55;17.67;;;8.43;;
26042;SDS011;13818;52.156;5.382;2022-12-18T14:51:26;20.52;;;7.20;;
26042;SDS011;13818;52.156;5.382;2022-12-18T14:53:55;17.63;;;7.28;;
26042;SDS011;13818;52.156;5.382;2022-12-18T14:56:24;23.73;;;8.65;;
26042;SDS011;13818;52.156;5.382;2022-12-18T14:58:53;20.77;;;7.20;;
26042;SDS011;13818;52.156;5.382;2022-12-18T15:01:22;17.83;;;7.90;;
26042;SDS011;13818;52.156;5.382;2022-12-18T15:03:52;17.50;;;7.70;;
26042;SDS011;13818;52.156;5.382;2022-12-18T15:06:31;18.30;;;8.00;;
26042;SDS011;13818;52.156;5.382;2022-12-18T15:09:00;19.77;;;7.57;;
26042;SDS011;13818;52.156;5.382;2022-12-18T15:11:32;18.52;;;6.90;;
26042;SDS011;13818;52.156;5.382;2022-12-18T15:16:52;19.60;;;8.70;;
26042;SDS011;13818;52.156;5.382;2022-12-18T15:19:19;18.90;;;7.65;;